Time,TemperatureF,DewpointF,PressureIn,WindDirection,WindDirectionDegrees,WindSpeedMPH,WindSpeedGustMPH,Humidity,HourlyPrecipIn,Conditions,Clouds,dailyrainin,SolarRadiationWatts/m^2,SoftwareType,DateUTC
2013-03-06 00:21:00,45.0,44.0,30.26,WNW,286,6.0,10.0,97,0.00,,,0.00,0.000000,,2013-03-06 08:21:00,
2013-03-06 00:31:00,45.0,44.0,30.26,WNW,286,6.0,10.0,97,0.00,,,0.00,0.000000,,2013-03-06 08:31:00,
2013-03-06 00:42:00,45.0,44.0,30.26,WNW,286,6.0,10.0,97,0.00,,,0.00,0.000000,,2013-03-06 08:42:00,
2013-03-06 00:52:00,45.0,44.0,30.26,WNW,286,6.0,10.0,97,0.00,,,0.00,0.000000,,2013-03-06 08:52:00,
2013-03-06 01:21:00,46.0,45.0,30.25,West,280,7.0,11.0,97,0.00,,,-99.99,0.000000,,2013-03-06 09:21:00,
2013-03-06 01:31:00,46.0,45.0,30.25,West,280,7.0,11.0,97,0.00,,,-99.99,0.000000,,2013-03-06 09:31:00,
2013-03-06 01:41:00,46.0,45.0,30.25,West,280,7.0,11.0,97,0.00,,,-99.99,0.000000,,2013-03-06 09:41:00,
2013-03-06 01:51:00,46.0,45.0,30.25,West,280,7.0,11.0,97,0.00,,,-99.99,0.000000,,2013-03-06 09:51:00,
2013-03-06 02:21:00,44.0,42.0,30.25,NW,315,7.0,17.0,93,0.00,,,0.00,0.000000,,2013-03-06 10:21:00,
2013-03-06 02:31:00,44.0,42.0,30.25,NW,315,7.0,17.0,93,0.00,,,0.00,0.000000,,2013-03-06 10:31:00,
2013-03-06 02:42:00,44.0,42.0,30.25,NW,315,7.0,17.0,93,0.00,,,0.00,0.000000,,2013-03-06 10:42:00,
2013-03-06 02:51:00,44.0,42.0,30.25,NW,315,7.0,17.0,93,0.00,,,0.00,0.000000,,2013-03-06 10:51:00,
2013-03-06 03:22:00,45.0,44.0,30.25,NE,47,5.0,14.0,95,0.00,,,0.00,0.000000,,2013-03-06 11:22:00,
2013-03-06 03:32:00,45.0,44.0,30.25,NE,47,5.0,14.0,95,0.00,,,0.00,0.000000,,2013-03-06 11:32:00,
2013-03-06 03:42:00,45.0,44.0,30.25,NE,47,5.0,14.0,95,0.00,,,0.00,0.000000,,2013-03-06 11:42:00,
2013-03-06 03:52:00,45.0,44.0,30.25,NE,47,5.0,14.0,95,0.00,,,0.00,0.000000,,2013-03-06 11:52:00,
2013-03-06 04:21:00,42.0,42.0,30.25,NE,55,5.0,9.0,100,0.00,,,0.00,0.000000,,2013-03-06 12:21:00,
2013-03-06 04:32:00,42.0,42.0,30.25,NE,55,5.0,9.0,100,0.00,,,0.00,0.000000,,2013-03-06 12:32:00,
2013-03-06 04:42:00,42.0,42.0,30.25,NE,55,5.0,9.0,100,0.00,,,0.00,0.000000,,2013-03-06 12:42:00,
2013-03-06 04:52:00,42.0,42.0,30.25,NE,55,5.0,9.0,100,0.00,,,0.00,0.000000,,2013-03-06 12:52:00,
2013-03-06 05:21:00,42.0,42.0,30.25,ENE,77,5.0,9.0,100,0.00,,,0.00,0.000000,,2013-03-06 13:21:00,
2013-03-06 05:32:00,42.0,42.0,30.25,ENE,77,5.0,9.0,100,0.00,,,0.00,0.000000,,2013-03-06 13:32:00,
2013-03-06 05:42:00,42.0,42.0,30.25,ENE,77,5.0,9.0,100,0.00,,,0.00,0.000000,,2013-03-06 13:42:00,
2013-03-06 05:51:00,42.0,42.0,30.25,ENE,77,5.0,9.0,100,0.00,,,0.00,0.000000,,2013-03-06 13:51:00,
2013-03-06 06:21:00,43.0,43.0,30.25,West,259,2.0,7.0,100,0.00,,,0.00,0.000000,,2013-03-06 14:21:00,
2013-03-06 06:32:00,43.0,43.0,30.25,West,259,2.0,7.0,100,0.00,,,0.00,0.000000,,2013-03-06 14:32:00,
2013-03-06 06:41:00,43.0,43.0,30.25,West,259,2.0,7.0,100,0.00,,,0.00,0.000000,,2013-03-06 14:41:00,
2013-03-06 06:52:00,43.0,43.0,30.25,West,259,2.0,7.0,100,0.00,,,0.00,0.000000,,2013-03-06 14:52:00,
2013-03-06 07:21:00,44.0,44.0,30.27,NNW,328,5.0,10.0,100,0.00,,,0.00,2.000000,,2013-03-06 15:21:00,
2013-03-06 07:32:00,44.0,44.0,30.27,NNW,328,5.0,10.0,100,0.00,,,0.00,2.000000,,2013-03-06 15:32:00,
2013-03-06 07:42:00,44.0,44.0,30.27,NNW,328,5.0,10.0,100,0.00,,,0.00,2.000000,,2013-03-06 15:42:00,
2013-03-06 07:52:00,44.0,44.0,30.27,NNW,328,5.0,10.0,100,0.00,,,0.00,2.000000,,2013-03-06 15:52:00,
2013-03-06 08:21:00,48.0,45.0,30.29,West,281,4.0,6.0,88,0.00,,,0.00,129.000000,,2013-03-06 16:21:00,
2013-03-06 08:32:00,48.0,45.0,30.29,West,281,4.0,6.0,88,0.00,,,0.00,129.000000,,2013-03-06 16:32:00,
2013-03-06 08:41:00,48.0,45.0,30.29,West,281,4.0,6.0,88,0.00,,,0.00,129.000000,,2013-03-06 16:41:00,
2013-03-06 08:51:00,48.0,45.0,30.29,West,281,4.0,6.0,88,0.00,,,0.00,129.000000,,2013-03-06 16:51:00,
2013-03-06 09:21:00,51.0,44.0,30.29,West,271,7.0,13.0,77,0.00,,,0.00,266.000000,,2013-03-06 17:21:00,
2013-03-06 09:32:00,51.0,44.0,30.29,West,271,7.0,13.0,77,0.00,,,0.00,266.000000,,2013-03-06 17:32:00,
2013-03-06 09:41:00,51.0,44.0,30.29,West,271,7.0,13.0,77,0.00,,,0.00,266.000000,,2013-03-06 17:41:00,
2013-03-06 09:52:00,51.0,44.0,30.29,West,271,7.0,13.0,77,0.00,,,0.00,266.000000,,2013-03-06 17:52:00,
2013-03-06 10:28:00,52.0,44.0,30.28,WNW,292,11.0,18.0,74,0.00,,,0.00,445.000000,,2013-03-06 18:28:00,
2013-03-06 10:42:00,52.0,44.0,30.28,WNW,292,11.0,18.0,74,0.00,,,0.00,445.000000,,2013-03-06 18:42:00,
2013-03-06 10:52:00,52.0,44.0,30.28,WNW,292,11.0,18.0,74,0.00,,,0.00,445.000000,,2013-03-06 18:52:00,
2013-03-06 11:21:00,54.0,45.0,30.29,WNW,296,8.0,17.0,71,0.00,,,0.00,440.000000,,2013-03-06 19:21:00,
2013-03-06 11:32:00,54.0,45.0,30.29,WNW,296,8.0,17.0,71,0.00,,,0.00,440.000000,,2013-03-06 19:32:00,
2013-03-06 11:42:00,54.0,45.0,30.29,WNW,296,8.0,17.0,71,0.00,,,0.00,440.000000,,2013-03-06 19:42:00,
2013-03-06 11:52:00,54.0,45.0,30.29,WNW,296,8.0,17.0,71,0.00,,,0.00,440.000000,,2013-03-06 19:52:00,
2013-03-06 12:22:00,52.0,43.0,30.27,WNW,290,10.0,20.0,70,0.00,,,0.00,495.000000,,2013-03-06 20:22:00,
2013-03-06 12:32:00,52.0,43.0,30.27,WNW,290,10.0,20.0,70,0.00,,,0.00,495.000000,,2013-03-06 20:32:00,
2013-03-06 12:42:00,52.0,43.0,30.27,WNW,290,10.0,20.0,70,0.00,,,0.00,495.000000,,2013-03-06 20:42:00,
2013-03-06 12:52:00,52.0,43.0,30.27,WNW,290,10.0,20.0,70,0.00,,,0.00,495.000000,,2013-03-06 20:52:00,
2013-03-06 13:22:00,53.0,41.0,30.25,WNW,290,10.0,18.0,64,0.00,,,0.00,495.000000,,2013-03-06 21:22:00,
2013-03-06 13:32:00,53.0,41.0,30.25,WNW,290,10.0,18.0,64,0.00,,,0.00,495.000000,,2013-03-06 21:32:00,
2013-03-06 13:42:00,53.0,41.0,30.25,WNW,290,10.0,18.0,64,0.00,,,0.00,495.000000,,2013-03-06 21:42:00,
2013-03-06 13:51:00,53.0,41.0,30.25,WNW,290,10.0,18.0,64,0.00,,,0.00,495.000000,,2013-03-06 21:51:00,
2013-03-06 14:21:00,55.0,44.0,30.23,NW,308,6.0,16.0,67,0.00,,,0.00,330.000000,,2013-03-06 22:21:00,
2013-03-06 14:32:00,55.0,44.0,30.23,NW,308,6.0,16.0,67,0.00,,,0.00,330.000000,,2013-03-06 22:32:00,
2013-03-06 14:41:00,55.0,44.0,30.23,NW,308,6.0,16.0,67,0.00,,,0.00,330.000000,,2013-03-06 22:41:00,
2013-03-06 14:51:00,55.0,44.0,30.23,NW,308,6.0,16.0,67,0.00,,,0.00,330.000000,,2013-03-06 22:51:00,
2013-03-06 15:21:00,54.0,44.0,30.22,WNW,298,4.0,11.0,70,0.00,,,0.00,322.000000,,2013-03-06 23:21:00,
2013-03-06 15:31:00,54.0,44.0,30.22,WNW,298,4.0,11.0,70,0.00,,,0.00,322.000000,,2013-03-06 23:31:00,
2013-03-06 15:41:00,54.0,44.0,30.22,WNW,298,4.0,11.0,70,0.00,,,0.00,322.000000,,2013-03-06 23:41:00,
2013-03-06 15:52:00,54.0,44.0,30.22,WNW,298,4.0,11.0,70,0.00,,,0.00,322.000000,,2013-03-06 23:52:00,
2013-03-06 16:21:00,56.0,46.0,30.21,NNW,329,4.0,8.0,68,0.00,,,0.00,323.000000,,2013-03-07 00:21:00,
2013-03-06 16:32:00,56.0,46.0,30.21,NNW,329,4.0,8.0,68,0.00,,,0.00,323.000000,,2013-03-07 00:32:00,
2013-03-06 16:41:00,56.0,46.0,30.21,NNW,329,4.0,8.0,68,0.00,,,0.00,323.000000,,2013-03-07 00:41:00,
2013-03-06 16:51:00,56.0,46.0,30.21,NNW,329,4.0,8.0,68,0.00,,,0.00,323.000000,,2013-03-07 00:51:00,
2013-03-06 17:21:00,53.0,45.0,30.20,North,8,4.0,10.0,73,0.00,,,0.00,59.000000,,2013-03-07 01:21:00,
2013-03-06 17:31:00,53.0,45.0,30.20,North,8,4.0,10.0,73,0.00,,,0.00,59.000000,,2013-03-07 01:31:00,
2013-03-06 17:41:00,53.0,45.0,30.20,North,8,4.0,10.0,73,0.00,,,0.00,59.000000,,2013-03-07 01:41:00,
2013-03-06 17:51:00,53.0,45.0,30.20,North,8,4.0,10.0,73,0.00,,,0.00,59.000000,,2013-03-07 01:51:00,
2013-03-06 18:21:00,49.0,45.0,30.19,NE,37,4.0,10.0,87,0.00,,,0.00,1.000000,,2013-03-07 02:21:00,
2013-03-06 18:31:00,49.0,45.0,30.19,NE,37,4.0,10.0,87,0.00,,,0.00,1.000000,,2013-03-07 02:31:00,
2013-03-06 18:41:00,49.0,45.0,30.19,NE,37,4.0,10.0,87,0.00,,,0.00,1.000000,,2013-03-07 02:41:00,
2013-03-06 18:51:00,49.0,45.0,30.19,NE,37,4.0,10.0,87,0.00,,,0.00,1.000000,,2013-03-07 02:51:00,
2013-03-06 19:21:00,47.0,46.0,30.19,NW,313,3.0,8.0,96,0.00,,,0.00,0.000000,,2013-03-07 03:21:00,
2013-03-06 19:32:00,47.0,46.0,30.19,NW,313,3.0,8.0,96,0.00,,,0.00,0.000000,,2013-03-07 03:32:00,
2013-03-06 19:41:00,47.0,46.0,30.19,NW,313,3.0,8.0,96,0.00,,,0.00,0.000000,,2013-03-07 03:41:00,
2013-03-06 19:51:00,47.0,46.0,30.19,NW,313,3.0,8.0,96,0.00,,,0.00,0.000000,,2013-03-07 03:51:00,
2013-03-06 20:21:00,49.0,47.0,30.18,West,269,2.0,9.0,94,0.00,,,-99.99,0.000000,,2013-03-07 04:21:00,
2013-03-06 20:31:00,49.0,47.0,30.18,West,269,2.0,9.0,94,0.00,,,-99.99,0.000000,,2013-03-07 04:31:00,
2013-03-06 20:41:00,49.0,47.0,30.18,West,269,2.0,9.0,94,0.00,,,-99.99,0.000000,,2013-03-07 04:41:00,
2013-03-06 20:51:00,49.0,47.0,30.18,West,269,2.0,9.0,94,0.00,,,-99.99,0.000000,,2013-03-07 04:51:00,
2013-03-06 21:22:00,48.0,48.0,30.18,NE,35,3.0,7.0,100,0.00,,,0.00,0.000000,,2013-03-07 05:22:00,
2013-03-06 21:32:00,48.0,48.0,30.18,NE,35,3.0,7.0,100,0.00,,,0.00,0.000000,,2013-03-07 05:32:00,
2013-03-06 21:41:00,48.0,48.0,30.18,NE,35,3.0,7.0,100,0.00,,,0.00,0.000000,,2013-03-07 05:41:00,
2013-03-06 21:52:00,48.0,48.0,30.18,NE,35,3.0,7.0,100,0.00,,,0.00,0.000000,,2013-03-07 05:52:00,
2013-03-06 22:21:00,46.0,46.0,30.18,WNW,292,4.0,6.0,99,0.00,,,0.00,0.000000,,2013-03-07 06:21:00,
2013-03-06 22:31:00,46.0,46.0,30.18,WNW,292,4.0,6.0,99,0.00,,,0.00,0.000000,,2013-03-07 06:31:00,
2013-03-06 22:41:00,46.0,46.0,30.18,WNW,292,4.0,6.0,99,0.00,,,0.00,0.000000,,2013-03-07 06:41:00,
2013-03-06 22:51:00,46.0,46.0,30.18,WNW,292,4.0,6.0,99,0.00,,,0.00,0.000000,,2013-03-07 06:51:00,
2013-03-06 23:21:00,46.0,46.0,30.17,WNW,286,5.0,7.0,100,0.00,,,0.00,0.000000,,2013-03-07 07:21:00,
2013-03-06 23:32:00,46.0,46.0,30.17,WNW,286,5.0,7.0,100,0.00,,,0.00,0.000000,,2013-03-07 07:32:00,
2013-03-06 23:42:00,46.0,46.0,30.17,WNW,286,5.0,7.0,100,0.00,,,0.00,0.000000,,2013-03-07 07:42:00,
2013-03-06 23:51:00,46.0,46.0,30.17,WNW,286,5.0,7.0,100,0.00,,,0.00,0.000000,,2013-03-07 07:51:00,